Time;durP1;ratioP1;P1;durP2;ratioP2;P2;SDS_P1;SDS_P2;PMS_P1;PMS_P2;Temp;Humidity;BMP_temperature;BMP_pressure;BME280_temperature;BME280_humidity;BME280_pressure;Samples;Min_cycle;Max_cycle;Signal;HPM_P1;HPM_P2
2021/12/09 00:01:43;;;;;;;2.93;1.00;;;;;;;;;;5077383;28;20718;-79
2021/12/09 00:04:14;;;;;;;1.20;1.10;;;;;;;;;;5077779;28;20206;-78
2021/12/09 00:06:44;;;;;;;1.10;1.10;;;;;;;;;;5077784;28;20294;-79
2021/12/09 00:09:13;;;;;;;1.47;1.20;;;;;;;;;;5078018;28;20226;-79
2021/12/09 00:11:46;;;;;;;2.03;1.10;;;;;;;;;;5077855;28;20202;-78
2021/12/09 00:14:17;;;;;;;1.00;1.00;;;;;;;;;;5077898;28;20217;-79
2021/12/09 00:16:45;;;;;;;4.67;1.40;;;;;;;;;;5077885;28;20202;-79
2021/12/09 00:19:13;;;;;;;1.50;1.17;;;;;;;;;;5077401;28;20708;-79
2021/12/09 00:21:41;;;;;;;1.40;0.90;;;;;;;;;;5081106;28;20261;-80
2021/12/09 00:24:09;;;;;;;2.80;1.30;;;;;;;;;;5077568;28;20203;-79
2021/12/09 00:26:39;;;;;;;3.40;1.07;;;;;;;;;;5077630;28;20290;-79
2021/12/09 00:29:07;;;;;;;0.93;0.90;;;;;;;;;;5087042;28;20221;-79
2021/12/09 00:31:37;;;;;;;2.27;1.10;;;;;;;;;;5077778;28;20202;-79
2021/12/09 00:34:05;;;;;;;1.20;1.20;;;;;;;;;;5077454;28;20212;-79
2021/12/09 00:36:38;;;;;;;4.57;1.20;;;;;;;;;;5077513;28;20727;-78
2021/12/09 00:39:06;;;;;;;1.37;1.07;;;;;;;;;;5083984;28;20225;-79
2021/12/09 00:41:34;;;;;;;2.37;1.37;;;;;;;;;;5077431;28;20214;-79
2021/12/09 00:44:03;;;;;;;2.43;1.07;;;;;;;;;;5077235;28;20210;-79
2021/12/09 00:46:31;;;;;;;1.87;0.90;;;;;;;;;;5077586;28;20216;-80
2021/12/09 00:49:01;;;;;;;1.27;0.90;;;;;;;;;;5077030;28;20747;-79
2021/12/09 00:51:29;;;;;;;2.20;1.20;;;;;;;;;;5077541;28;20210;-79
2021/12/09 00:53:57;;;;;;;0.80;0.80;;;;;;;;;;5081671;28;20442;-79
2021/12/09 00:56:25;;;;;;;1.70;1.00;;;;;;;;;;5097804;28;20284;-79
2021/12/09 00:58:55;;;;;;;1.30;1.20;;;;;;;;;;5097609;28;20225;-80
2021/12/09 01:01:23;;;;;;;0.97;0.83;;;;;;;;;;5097864;28;20229;-79
2021/12/09 01:03:52;;;;;;;1.07;1.07;;;;;;;;;;5097322;28;20289;-80
2021/12/09 01:06:21;;;;;;;2.47;1.07;;;;;;;;;;5097481;28;20292;-79
2021/12/09 01:08:49;;;;;;;1.73;1.00;;;;;;;;;;5097535;28;20225;-79
2021/12/09 01:11:17;;;;;;;3.03;1.37;;;;;;;;;;5097610;28;20259;-79
2021/12/09 01:13:45;;;;;;;3.57;1.57;;;;;;;;;;5078593;28;20737;-78
2021/12/09 01:16:13;;;;;;;3.47;1.30;;;;;;;;;;5080957;28;20648;-78
2021/12/09 01:18:42;;;;;;;2.27;1.40;;;;;;;;;;5080228;28;20226;-79
2021/12/09 01:21:10;;;;;;;2.33;1.33;;;;;;;;;;5082479;28;20201;-79
2021/12/09 01:23:41;;;;;;;3.03;1.47;;;;;;;;;;5079971;28;20222;-79
2021/12/09 01:26:08;;;;;;;2.37;1.13;;;;;;;;;;5080682;28;20205;-78
2021/12/09 01:28:44;;;;;;;1.47;1.10;;;;;;;;;;5085879;28;20217;-79
2021/12/09 01:31:19;;;;;;;1.30;1.20;;;;;;;;;;5082971;28;20573;-78
2021/12/09 01:33:47;;;;;;;1.20;1.10;;;;;;;;;;5080963;28;20202;-78
2021/12/09 01:36:16;;;;;;;2.30;1.47;;;;;;;;;;5080350;28;20547;-79
2021/12/09 01:38:45;;;;;;;1.53;1.07;;;;;;;;;;5086468;28;20225;-78
2021/12/09 01:41:13;;;;;;;1.37;1.20;;;;;;;;;;5080824;28;20443;-79
2021/12/09 01:43:41;;;;;;;1.40;1.30;;;;;;;;;;5080286;28;20490;-79
2021/12/09 01:46:10;;;;;;;2.23;1.10;;;;;;;;;;5079776;28;20216;-79
2021/12/09 01:48:39;;;;;;;1.73;1.60;;;;;;;;;;5079761;28;20452;-79
2021/12/09 01:51:08;;;;;;;3.90;1.77;;;;;;;;;;5078567;28;20206;-79
2021/12/09 01:53:36;;;;;;;1.80;1.40;;;;;;;;;;5079787;28;20446;-79
2021/12/09 01:56:06;;;;;;;1.90;1.47;;;;;;;;;;5089570;28;20508;-79
2021/12/09 01:58:34;;;;;;;1.93;1.40;;;;;;;;;;5078467;28;20460;-79
2021/12/09 02:01:04;;;;;;;6.27;1.30;;;;;;;;;;5078341;28;20452;-79
2021/12/09 02:03:33;;;;;;;2.63;1.47;;;;;;;;;;5078175;28;20879;-79
2021/12/09 02:06:01;;;;;;;1.30;1.20;;;;;;;;;;5080164;28;20245;-79
2021/12/09 02:08:29;;;;;;;2.67;0.90;;;;;;;;;;5084418;28;20685;-79
2021/12/09 02:10:57;;;;;;;2.00;1.10;;;;;;;;;;5100024;28;20205;-79
2021/12/09 02:13:27;;;;;;;3.20;1.27;;;;;;;;;;5081467;28;20444;-79
2021/12/09 02:15:56;;;;;;;1.57;1.00;;;;;;;;;;5080053;28;20212;-79
2021/12/09 02:18:24;;;;;;;2.20;1.23;;;;;;;;;;5083143;28;20213;-79
2021/12/09 02:21:06;;;;;;;2.50;0.93;;;;;;;;;;5099986;28;20214;-79
2021/12/09 02:23:34;;;;;;;2.37;1.10;;;;;;;;;;5080510;28;20222;-78
2021/12/09 02:26:02;;;;;;;1.07;0.90;;;;;;;;;;5079587;28;20212;-79
2021/12/09 02:28:30;;;;;;;1.10;1.10;;;;;;;;;;5084497;28;20225;-79
2021/12/09 02:30:58;;;;;;;2.00;1.60;;;;;;;;;;5087137;28;20216;-79
2021/12/09 02:33:26;;;;;;;2.70;1.00;;;;;;;;;;5079472;28;20209;-79
2021/12/09 02:35:54;;;;;;;2.53;1.37;;;;;;;;;;5079268;28;20248;-79
2021/12/09 02:38:24;;;;;;;1.80;1.07;;;;;;;;;;5082485;28;20237;-80
2021/12/09 02:40:52;;;;;;;1.73;1.50;;;;;;;;;;5085314;28;20289;-79
2021/12/09 02:43:24;;;;;;;1.70;1.30;;;;;;;;;;5079265;28;20229;-80
2021/12/09 02:45:53;;;;;;;2.07;1.10;;;;;;;;;;5079587;28;20206;-79
2021/12/09 02:48:21;;;;;;;3.03;1.20;;;;;;;;;;5079155;28;20309;-79
2021/12/09 02:50:50;;;;;;;1.30;1.00;;;;;;;;;;5079083;28;20285;-79
2021/12/09 02:53:18;;;;;;;1.87;1.23;;;;;;;;;;5079186;28;20203;-79
2021/12/09 02:55:48;;;;;;;1.77;1.10;;;;;;;;;;5079282;28;20210;-79
2021/12/09 02:58:16;;;;;;;3.90;1.50;;;;;;;;;;5079025;28;20222;-79
2021/12/09 03:00:51;;;;;;;1.50;1.00;;;;;;;;;;5079291;28;20217;-79
2021/12/09 03:03:20;;;;;;;3.00;1.23;;;;;;;;;;5079007;28;20229;-79
2021/12/09 03:05:48;;;;;;;2.40;1.23;;;;;;;;;;5078948;28;20203;-79
2021/12/09 03:08:22;;;;;;;1.47;1.23;;;;;;;;;;5078936;28;20230;-79
2021/12/09 03:10:51;;;;;;;1.93;1.43;;;;;;;;;;5086492;28;20295;-79
2021/12/09 03:13:20;;;;;;;1.30;1.20;;;;;;;;;;5098857;28;20202;-79
2021/12/09 03:15:48;;;;;;;2.30;1.07;;;;;;;;;;5099378;28;20265;-79
2021/12/09 03:18:16;;;;;;;1.57;1.47;;;;;;;;;;5098591;28;20225;-79
2021/12/09 03:20:44;;;;;;;1.83;1.60;;;;;;;;;;5098705;28;20212;-79
2021/12/09 03:23:12;;;;;;;2.73;1.20;;;;;;;;;;5082038;28;20209;-80
2021/12/09 03:25:39;;;;;;;2.13;1.57;;;;;;;;;;5078428;28;20562;-79
2021/12/09 03:28:09;;;;;;;1.37;1.10;;;;;;;;;;5079824;28;20769;-79
2021/12/09 03:30:37;;;;;;;1.67;1.00;;;;;;;;;;5088089;28;20207;-79
2021/12/09 03:33:05;;;;;;;1.10;1.00;;;;;;;;;;5078611;28;20207;-79
2021/12/09 03:35:33;;;;;;;1.37;1.10;;;;;;;;;;5077918;28;20213;-79
2021/12/09 03:38:01;;;;;;;2.63;0.93;;;;;;;;;;5078116;28;20321;-78
2021/12/09 03:40:29;;;;;;;1.20;0.90;;;;;;;;;;5078401;28;20745;-78
2021/12/09 03:42:57;;;;;;;2.17;0.80;;;;;;;;;;5077812;28;20565;-79
2021/12/09 03:45:26;;;;;;;2.73;0.90;;;;;;;;;;5078041;28;20991;-78
2021/12/09 03:47:54;;;;;;;2.47;1.23;;;;;;;;;;5078055;28;20285;-79
2021/12/09 03:50:22;;;;;;;1.30;1.10;;;;;;;;;;5077625;28;20206;-80
2021/12/09 03:52:53;;;;;;;3.30;1.30;;;;;;;;;;5085105;28;20213;-78
2021/12/09 03:55:35;;;;;;;1.67;1.20;;;;;;;;;;5097168;28;20205;-79
2021/12/09 03:58:06;;;;;;;2.20;0.97;;;;;;;;;;5098152;28;20236;-78
2021/12/09 04:03:26;;;;;;;0.77;0.77;;;;;;;;;;5096394;28;20259;-79
2021/12/09 04:05:54;;;;;;;2.53;1.00;;;;;;;;;;5097812;28;20201;-79
2021/12/09 04:08:22;;;;;;;2.20;1.00;;;;;;;;;;5098114;28;20696;-79
2021/12/09 04:10:50;;;;;;;0.90;0.90;;;;;;;;;;5098172;28;20206;-79
2021/12/09 04:13:18;;;;;;;0.70;0.60;;;;;;;;;;5098040;28;20209;-79
2021/12/09 04:15:48;;;;;;;1.77;0.87;;;;;;;;;;5098178;28;20198;-78
2021/12/09 04:18:16;;;;;;;1.50;1.07;;;;;;;;;;5098005;28;20290;-79
2021/12/09 04:20:44;;;;;;;1.27;0.97;;;;;;;;;;5097723;28;20271;-78
2021/12/09 04:23:12;;;;;;;2.87;1.10;;;;;;;;;;5081527;28;20285;-79
2021/12/09 04:25:40;;;;;;;0.90;0.90;;;;;;;;;;5077799;28;20230;-79
2021/12/09 04:28:08;;;;;;;1.80;1.07;;;;;;;;;;5086227;28;20223;-79
2021/12/09 04:30:36;;;;;;;1.17;1.00;;;;;;;;;;5086557;28;20209;-79
2021/12/09 04:33:06;;;;;;;2.43;0.80;;;;;;;;;;5088210;28;20224;-79
2021/12/09 04:35:34;;;;;;;2.70;1.00;;;;;;;;;;5090865;28;20198;-79
2021/12/09 04:38:02;;;;;;;0.87;0.80;;;;;;;;;;5086176;28;20284;-80
2021/12/09 04:40:30;;;;;;;1.60;1.50;;;;;;;;;;5087836;28;20224;-79
2021/12/09 04:43:00;;;;;;;2.20;1.20;;;;;;;;;;5089282;28;20198;-79
2021/12/09 04:45:28;;;;;;;2.07;1.20;;;;;;;;;;5088587;28;20301;-79
2021/12/09 04:47:56;;;;;;;0.90;0.90;;;;;;;;;;5091482;28;20568;-79
2021/12/09 04:50:25;;;;;;;2.77;1.00;;;;;;;;;;5081434;28;20288;-79
2021/12/09 04:52:54;;;;;;;1.37;1.27;;;;;;;;;;5088233;28;20255;-79
2021/12/09 04:55:22;;;;;;;1.60;1.40;;;;;;;;;;5101645;28;20286;-79
2021/12/09 04:57:50;;;;;;;1.50;1.40;;;;;;;;;;5101526;28;20213;-79
2021/12/09 05:00:19;;;;;;;3.57;1.63;;;;;;;;;;5088026;28;20201;-79
2021/12/09 05:03:01;;;;;;;5.60;2.00;;;;;;;;;;5092582;28;20207;-78
2021/12/09 05:05:34;;;;;;;2.87;1.67;;;;;;;;;;5091456;28;20262;-79
2021/12/09 05:08:03;;;;;;;2.00;1.63;;;;;;;;;;5094989;28;20221;-79
2021/12/09 05:10:34;;;;;;;1.43;1.30;;;;;;;;;;5091878;28;20204;-79
2021/12/09 05:13:03;;;;;;;1.70;1.60;;;;;;;;;;5092373;28;20515;-79
2021/12/09 05:15:32;;;;;;;2.40;1.50;;;;;;;;;;5090838;28;20538;-79
2021/12/09 05:18:00;;;;;;;2.37;1.27;;;;;;;;;;5089284;28;20235;-80
2021/12/09 05:20:28;;;;;;;1.67;1.57;;;;;;;;;;5091157;28;20204;-79
2021/12/09 05:22:57;;;;;;;2.57;1.73;;;;;;;;;;5091818;28;20455;-79
2021/12/09 05:25:25;;;;;;;3.53;2.40;;;;;;;;;;5088645;28;20482;-79
2021/12/09 05:27:54;;;;;;;1.97;1.80;;;;;;;;;;5087744;28;20522;-79
2021/12/09 05:30:25;;;;;;;2.43;1.63;;;;;;;;;;5091318;28;20658;-79
2021/12/09 05:32:52;;;;;;;1.70;1.60;;;;;;;;;;5093346;28;20198;-78
2021/12/09 05:35:20;;;;;;;4.20;1.63;;;;;;;;;;5091111;28;20204;-77
2021/12/09 05:37:48;;;;;;;2.23;1.43;;;;;;;;;;5095137;28;20358;-78
2021/12/09 05:40:18;;;;;;;1.83;1.50;;;;;;;;;;5085000;28;20206;-78
2021/12/09 05:42:46;;;;;;;2.40;1.10;;;;;;;;;;5080582;28;20234;-78
2021/12/09 05:45:14;;;;;;;3.03;1.60;;;;;;;;;;5090948;28;20218;-78
2021/12/09 05:47:42;;;;;;;2.80;1.70;;;;;;;;;;5101331;28;20284;-78
2021/12/09 05:50:11;;;;;;;2.70;1.83;;;;;;;;;;5100583;28;20467;-78
2021/12/09 05:52:39;;;;;;;2.00;1.83;;;;;;;;;;5099048;28;20326;-78
2021/12/09 05:55:11;;;;;;;3.10;1.87;;;;;;;;;;5098637;28;20281;-78
2021/12/09 05:57:41;;;;;;;2.47;1.77;;;;;;;;;;5088453;28;20538;-78
2021/12/09 06:00:10;;;;;;;3.53;2.13;;;;;;;;;;5098108;28;20208;-78
2021/12/09 06:02:38;;;;;;;2.03;1.80;;;;;;;;;;5098501;28;20208;-78
2021/12/09 06:05:06;;;;;;;2.80;1.90;;;;;;;;;;5096247;28;20925;-78
2021/12/09 06:07:34;;;;;;;2.03;1.37;;;;;;;;;;5097700;28;20204;-78
2021/12/09 06:10:03;;;;;;;4.87;1.93;;;;;;;;;;5095244;28;20304;-79
2021/12/09 06:12:32;;;;;;;2.37;1.70;;;;;;;;;;5091095;28;20235;-77
2021/12/09 06:15:02;;;;;;;1.93;1.70;;;;;;;;;;5091969;28;20276;-78
2021/12/09 06:17:34;;;;;;;1.57;1.47;;;;;;;;;;5092189;28;20206;-76
2021/12/09 06:20:02;;;;;;;4.13;1.63;;;;;;;;;;5093540;28;20218;-78
2021/12/09 06:22:30;;;;;;;7.67;1.90;;;;;;;;;;5091642;28;20440;-78
2021/12/09 06:24:58;;;;;;;3.47;2.27;;;;;;;;;;5088333;28;20479;-78
2021/12/09 06:27:29;;;;;;;1.80;1.70;;;;;;;;;;5089198;28;20646;-77
2021/12/09 06:29:57;;;;;;;3.07;1.50;;;;;;;;;;5093086;28;20499;-77
2021/12/09 06:32:27;;;;;;;1.63;1.50;;;;;;;;;;5093579;28;20205;-79
2021/12/09 06:34:55;;;;;;;2.23;1.63;;;;;;;;;;5079706;28;20206;-79
2021/12/09 06:37:23;;;;;;;4.47;2.20;;;;;;;;;;5082342;28;20233;-78
2021/12/09 06:39:51;;;;;;;3.03;1.80;;;;;;;;;;5089714;28;20764;-78
2021/12/09 06:42:19;;;;;;;1.90;1.73;;;;;;;;;;5084809;28;20252;-79
2021/12/09 06:44:47;;;;;;;3.87;2.03;;;;;;;;;;5078972;28;20584;-79
2021/12/09 06:47:15;;;;;;;2.47;1.90;;;;;;;;;;5087015;28;20440;-78
2021/12/09 06:49:44;;;;;;;2.70;1.67;;;;;;;;;;5087661;28;20224;-79
2021/12/09 06:52:14;;;;;;;1.60;1.50;;;;;;;;;;5089687;28;20197;-78
2021/12/09 06:54:41;;;;;;;9.03;1.80;;;;;;;;;;5082118;28;20755;-78
2021/12/09 06:57:10;;;;;;;3.30;1.83;;;;;;;;;;5090182;28;20276;-79
2021/12/09 06:59:38;;;;;;;5.07;2.37;;;;;;;;;;5087098;28;20886;-78
2021/12/09 07:02:06;;;;;;;4.77;1.77;;;;;;;;;;5090779;28;20194;-79
2021/12/09 07:04:35;;;;;;;1.83;1.73;;;;;;;;;;5089574;28;20736;-80
2021/12/09 07:07:05;;;;;;;4.83;2.37;;;;;;;;;;5089899;28;20225;-80
2021/12/09 07:09:33;;;;;;;1.50;1.40;;;;;;;;;;5078579;28;20234;-79
2021/12/09 07:12:01;;;;;;;4.27;2.07;;;;;;;;;;5077570;28;20650;-80
2021/12/09 07:14:29;;;;;;;3.77;1.90;;;;;;;;;;5078364;28;20214;-79
2021/12/09 07:17:00;;;;;;;2.73;1.60;;;;;;;;;;5078255;28;20609;-80
2021/12/09 07:19:28;;;;;;;1.93;1.70;;;;;;;;;;5090249;28;20217;-79
2021/12/09 07:21:56;;;;;;;3.40;1.60;;;;;;;;;;5092840;28;20217;-79
2021/12/09 07:24:26;;;;;;;2.73;1.73;;;;;;;;;;5078252;28;20255;-80
2021/12/09 07:26:54;;;;;;;6.57;1.57;;;;;;;;;;5084552;28;20634;-80
2021/12/09 07:29:22;;;;;;;5.03;1.60;;;;;;;;;;5090252;28;20222;-79
2021/12/09 07:31:53;;;;;;;3.20;1.50;;;;;;;;;;5078273;28;20214;-80
2021/12/09 07:34:24;;;;;;;5.13;1.70;;;;;;;;;;5077940;28;20206;-80
2021/12/09 07:36:52;;;;;;;3.27;1.60;;;;;;;;;;5077850;28;20757;-80
2021/12/09 07:39:21;;;;;;;3.60;1.93;;;;;;;;;;5086399;28;20229;-80
2021/12/09 07:41:51;;;;;;;1.73;1.40;;;;;;;;;;5077841;28;20245;-79
2021/12/09 07:44:21;;;;;;;2.97;2.33;;;;;;;;;;5077634;28;20509;-79
2021/12/09 07:46:52;;;;;;;5.27;1.60;;;;;;;;;;5088430;28;20225;-78
2021/12/09 07:49:20;;;;;;;5.80;1.70;;;;;;;;;;5088386;28;20231;-76
2021/12/09 07:51:48;;;;;;;6.47;1.50;;;;;;;;;;5091521;28;20193;-75
2021/12/09 07:54:16;;;;;;;3.17;2.27;;;;;;;;;;5084436;28;20208;-76
2021/12/09 07:56:45;;;;;;;2.50;1.90;;;;;;;;;;5090097;28;20198;-75
2021/12/09 07:59:14;;;;;;;3.87;1.93;;;;;;;;;;5086451;28;20290;-75
2021/12/09 08:01:42;;;;;;;3.97;1.67;;;;;;;;;;5087404;28;20668;-73
2021/12/09 08:04:11;;;;;;;6.53;1.80;;;;;;;;;;5081532;28;20259;-73
2021/12/09 08:06:39;;;;;;;4.17;1.80;;;;;;;;;;5083930;28;20227;-72
2021/12/09 08:09:08;;;;;;;1.67;1.47;;;;;;;;;;5088796;28;20236;-75
2021/12/09 08:11:38;;;;;;;3.63;1.67;;;;;;;;;;5077543;28;20210;-75
2021/12/09 08:14:07;;;;;;;2.80;2.30;;;;;;;;;;5081397;28;20202;-74
2021/12/09 08:16:38;;;;;;;3.77;1.73;;;;;;;;;;5094694;28;20193;-75
2021/12/09 08:19:07;;;;;;;4.57;1.70;;;;;;;;;;5087449;28;20266;-74
2021/12/09 08:21:37;;;;;;;4.33;1.70;;;;;;;;;;5089859;28;20201;-75
2021/12/09 08:24:06;;;;;;;8.13;1.87;;;;;;;;;;5097623;28;20205;-75
2021/12/09 08:26:34;;;;;;;5.50;1.60;;;;;;;;;;5092057;28;20221;-74
2021/12/09 08:29:04;;;;;;;2.93;1.83;;;;;;;;;;5089860;28;20229;-75
2021/12/09 08:31:33;;;;;;;7.60;2.23;;;;;;;;;;5084263;28;20461;-73
2021/12/09 08:34:14;;;;;;;8.03;2.90;;;;;;;;;;5087629;28;20209;-73
2021/12/09 08:36:50;;;;;;;4.27;2.00;;;;;;;;;;5084953;28;20274;-73
2021/12/09 08:39:20;;;;;;;3.03;1.93;;;;;;;;;;5086371;28;20267;-74
2021/12/09 08:41:49;;;;;;;6.00;1.63;;;;;;;;;;5087744;28;20444;-74
2021/12/09 08:44:17;;;;;;;2.90;1.67;;;;;;;;;;5092882;28;20506;-74
2021/12/09 08:46:45;;;;;;;8.77;1.70;;;;;;;;;;5097371;28;20483;-74
2021/12/09 08:49:15;;;;;;;2.07;1.40;;;;;;;;;;5097178;28;20723;-74
2021/12/09 08:51:43;;;;;;;6.20;1.50;;;;;;;;;;5096792;28;20459;-74
2021/12/09 08:54:12;;;;;;;7.00;1.30;;;;;;;;;;5095391;28;20300;-74
2021/12/09 08:56:44;;;;;;;2.63;1.63;;;;;;;;;;5078279;28;20463;-74
2021/12/09 08:59:12;;;;;;;4.33;1.90;;;;;;;;;;5081699;28;20217;-73
2021/12/09 09:02:01;;;;;;;2.23;1.77;;;;;;;;;;5087761;28;20198;-74
2021/12/09 09:04:33;;;;;;;3.23;2.07;;;;;;;;;;5086228;28;20764;-74
2021/12/09 09:07:02;;;;;;;6.43;1.97;;;;;;;;;;5093145;28;20760;-74
2021/12/09 09:09:35;;;;;;;5.03;1.20;;;;;;;;;;5096766;28;20766;-74
2021/12/09 09:12:03;;;;;;;2.30;1.40;;;;;;;;;;5096345;28;20251;-75
2021/12/09 09:14:32;;;;;;;4.67;2.13;;;;;;;;;;5086294;28;20256;-75
2021/12/09 09:17:00;;;;;;;7.83;2.00;;;;;;;;;;5077062;28;20256;-75
2021/12/09 09:19:30;;;;;;;1.77;1.30;;;;;;;;;;5086181;28;20222;-74
2021/12/09 09:21:59;;;;;;;5.47;1.60;;;;;;;;;;5083729;28;20206;-75
2021/12/09 09:24:27;;;;;;;4.37;1.43;;;;;;;;;;5077070;28;20220;-75
2021/12/09 09:26:55;;;;;;;2.27;1.00;;;;;;;;;;5079088;28;20587;-75
2021/12/09 09:29:24;;;;;;;4.43;1.90;;;;;;;;;;5085780;28;20256;-74
2021/12/09 09:31:53;;;;;;;3.33;1.83;;;;;;;;;;5094968;28;20675;-75
2021/12/09 09:34:21;;;;;;;3.53;1.70;;;;;;;;;;5095665;28;20680;-73
2021/12/09 09:36:51;;;;;;;3.33;1.70;;;;;;;;;;5098021;28;20223;-75
2021/12/09 09:39:27;;;;;;;6.97;2.40;;;;;;;;;;5094795;28;20306;-72
2021/12/09 09:42:00;;;;;;;6.17;1.93;;;;;;;;;;5095473;28;20193;-72
2021/12/09 09:44:34;;;;;;;5.60;2.10;;;;;;;;;;5092796;28;20633;-71
2021/12/09 09:47:04;;;;;;;6.27;1.93;;;;;;;;;;5081107;28;20231;-71
2021/12/09 09:49:34;;;;;;;2.40;1.43;;;;;;;;;;5091798;28;20229;-71
2021/12/09 09:52:05;;;;;;;4.40;1.83;;;;;;;;;;5100527;28;20292;-71
2021/12/09 09:54:33;;;;;;;4.63;1.83;;;;;;;;;;5100458;28;20265;-71
2021/12/09 09:57:01;;;;;;;2.27;1.50;;;;;;;;;;5100338;28;20201;-70
2021/12/09 09:59:29;;;;;;;2.57;1.83;;;;;;;;;;5081353;28;20218;-76
2021/12/09 10:01:57;;;;;;;7.27;1.80;;;;;;;;;;5086509;28;20228;-77
2021/12/09 10:04:33;;;;;;;2.93;1.30;;;;;;;;;;5089989;28;20455;-77
2021/12/09 10:07:01;;;;;;;4.20;1.47;;;;;;;;;;5093714;28;20468;-78
2021/12/09 10:09:31;;;;;;;3.00;1.67;;;;;;;;;;5097979;28;20225;-77
2021/12/09 10:12:01;;;;;;;2.03;1.33;;;;;;;;;;5098074;28;20205;-77
2021/12/09 10:14:32;;;;;;;2.80;1.43;;;;;;;;;;5099494;28;20688;-77
2021/12/09 10:17:05;;;;;;;4.03;1.53;;;;;;;;;;5099622;28;20206;-77
2021/12/09 10:19:33;;;;;;;3.50;1.70;;;;;;;;;;5089226;28;20455;-75
2021/12/09 10:22:06;;;;;;;4.73;1.90;;;;;;;;;;5089590;28;20463;-75
2021/12/09 10:24:36;;;;;;;6.70;1.40;;;;;;;;;;5088902;28;20973;-76
2021/12/09 10:27:05;;;;;;;3.40;1.33;;;;;;;;;;5088554;28;20484;-74
2021/12/09 10:29:37;;;;;;;5.43;1.40;;;;;;;;;;5087045;28;20464;-69
2021/12/09 10:32:06;;;;;;;4.70;1.33;;;;;;;;;;5080434;28;20466;-70
2021/12/09 10:34:37;;;;;;;2.70;1.50;;;;;;;;;;5078895;28;20483;-71
2021/12/09 10:37:06;;;;;;;1.63;1.20;;;;;;;;;;5082744;28;20483;-70
2021/12/09 10:39:37;;;;;;;3.33;1.30;;;;;;;;;;5091073;28;20476;-70
2021/12/09 10:42:08;;;;;;;1.93;1.67;;;;;;;;;;5086044;28;20483;-70
2021/12/09 10:44:42;;;;;;;4.63;1.80;;;;;;;;;;5099340;28;20503;-70
2021/12/09 10:47:13;;;;;;;5.53;1.20;;;;;;;;;;5098116;28;20508;-70
2021/12/09 10:49:49;;;;;;;5.13;1.20;;;;;;;;;;5099364;28;20229;-70
2021/12/09 10:52:26;;;;;;;3.40;1.20;;;;;;;;;;5089109;28;20649;-70
2021/12/09 10:54:56;;;;;;;6.10;1.80;;;;;;;;;;5078873;28;20526;-71
2021/12/09 10:57:28;;;;;;;2.53;1.30;;;;;;;;;;5095527;28;20197;-73
2021/12/09 10:59:56;;;;;;;7.30;2.13;;;;;;;;;;5098006;28;20464;-71
2021/12/09 11:02:25;;;;;;;5.67;1.30;;;;;;;;;;5091461;28;20280;-70
2021/12/09 11:05:00;;;;;;;2.33;1.30;;;;;;;;;;5091329;28;20250;-68
2021/12/09 11:07:30;;;;;;;3.83;1.20;;;;;;;;;;5089092;28;20704;-71
2021/12/09 11:10:21;;;;;;;3.37;1.50;;;;;;;;;;5090428;28;20244;-71
2021/12/09 11:12:53;;;;;;;7.70;2.17;;;;;;;;;;5097389;28;20204;-71
2021/12/09 11:15:23;;;;;;;4.67;1.70;;;;;;;;;;5098597;28;20210;-70
2021/12/09 11:17:53;;;;;;;9.83;5.17;;;;;;;;;;5098786;28;20206;-71
2021/12/09 11:20:39;;;;;;;3.67;1.40;;;;;;;;;;5085138;28;20266;-71
2021/12/09 11:23:22;;;;;;;0.93;0.93;;;;;;;;;;5083509;28;20210;-69
2021/12/09 11:25:52;;;;;;;3.50;1.27;;;;;;;;;;5094805;28;20285;-70
2021/12/09 11:28:20;;;;;;;6.00;1.73;;;;;;;;;;5081449;28;20229;-70
2021/12/09 11:31:07;;;;;;;1.80;1.17;;;;;;;;;;5085538;28;20323;-69
2021/12/09 11:33:39;;;;;;;7.70;1.50;;;;;;;;;;5087037;28;20689;-70
2021/12/09 11:36:14;;;;;;;8.10;1.47;;;;;;;;;;5098066;28;20230;-70
2021/12/09 11:39:06;;;;;;;5.97;1.83;;;;;;;;;;5096811;28;20219;-71
2021/12/09 11:41:38;;;;;;;2.57;1.20;;;;;;;;;;5098532;28;20294;-69
2021/12/09 11:44:08;;;;;;;5.40;1.50;;;;;;;;;;5091899;28;20241;-68
2021/12/09 11:46:37;;;;;;;3.20;1.17;;;;;;;;;;5078174;28;20206;-69
2021/12/09 11:49:05;;;;;;;2.37;1.40;;;;;;;;;;5077621;28;20230;-68
2021/12/09 11:51:33;;;;;;;1.87;1.17;;;;;;;;;;5086856;28;20198;-70
2021/12/09 11:54:04;;;;;;;3.00;1.57;;;;;;;;;;5086161;28;20218;-70
2021/12/09 11:56:40;;;;;;;4.97;1.67;;;;;;;;;;5087364;28;20199;-70
2021/12/09 12:11:05;;;;;;;3.10;2.20;;;;;;;;;;5095996;28;20207;-72
2021/12/09 12:11:16;;;;;;;6.70;1.40;;;;;;;;;;5096790;28;20205;-73
2021/12/09 12:13:50;;;;;;;5.97;1.33;;;;;;;;;;5096436;28;20225;-73
2021/12/09 12:16:46;;;;;;;2.50;1.20;;;;;;;;;;5097158;28;20212;-73
2021/12/09 12:19:26;;;;;;;6.80;1.57;;;;;;;;;;5086844;28;20225;-67
2021/12/09 12:22:30;;;;;;;2.10;1.53;;;;;;;;;;5086617;28;20292;-67
2021/12/09 12:25:10;;;;;;;6.03;1.00;;;;;;;;;;5085714;28;20276;-68
2021/12/09 12:27:56;;;;;;;3.13;1.33;;;;;;;;;;5086410;28;20197;-68
2021/12/09 12:30:54;;;;;;;2.67;1.17;;;;;;;;;;5088088;28;20194;-68
2021/12/09 12:33:47;;;;;;;4.97;2.03;;;;;;;;;;5088531;28;20216;-68
2021/12/09 12:36:29;;;;;;;7.57;1.10;;;;;;;;;;5087769;28;20260;-68
2021/12/09 12:39:15;;;;;;;2.20;1.33;;;;;;;;;;5091214;28;20217;-69
2021/12/09 12:41:58;;;;;;;2.50;1.10;;;;;;;;;;5081554;28;20281;-68
2021/12/09 12:44:26;;;;;;;3.23;1.53;;;;;;;;;;5095225;28;20233;-68
2021/12/09 12:46:59;;;;;;;1.83;1.17;;;;;;;;;;5097207;28;20572;-68
2021/12/09 12:49:35;;;;;;;3.27;0.90;;;;;;;;;;5096852;28;20264;-68
2021/12/09 12:52:06;;;;;;;3.03;1.03;;;;;;;;;;5077290;28;20657;-69
2021/12/09 12:57:30;;;;;;;2.83;1.30;;;;;;;;;;5075223;28;20206;-71
2021/12/09 13:00:06;;;;;;;3.37;0.90;;;;;;;;;;5077081;28;20708;-68
2021/12/09 13:05:33;;;;;;;4.83;1.47;;;;;;;;;;5077002;28;20202;-68
2021/12/09 13:08:26;;;;;;;5.60;1.33;;;;;;;;;;5076954;28;20245;-68
2021/12/09 13:11:13;;;;;;;4.00;1.10;;;;;;;;;;5084712;28;20286;-68
2021/12/09 13:13:50;;;;;;;2.80;0.90;;;;;;;;;;5090252;28;20246;-68
2021/12/09 13:16:27;;;;;;;7.87;1.50;;;;;;;;;;5085885;28;20262;-69
2021/12/09 13:19:09;;;;;;;8.73;1.40;;;;;;;;;;5082196;28;20681;-69
2021/12/09 13:21:45;;;;;;;3.73;1.30;;;;;;;;;;5088770;28;20205;-67
2021/12/09 13:24:28;;;;;;;4.37;0.93;;;;;;;;;;5093217;28;20235;-68
2021/12/09 13:27:30;;;;;;;5.20;1.37;;;;;;;;;;5100098;28;20202;-68
2021/12/09 13:30:14;;;;;;;2.57;1.03;;;;;;;;;;5083763;28;20237;-68
2021/12/09 13:35:45;;;;;;;2.07;1.13;;;;;;;;;;5092522;28;20201;-67
2021/12/09 13:38:34;;;;;;;8.07;1.40;;;;;;;;;;5091589;28;20226;-68
2021/12/09 13:46:53;;;;;;;3.67;1.53;;;;;;;;;;5091654;28;20198;-68
2021/12/09 13:49:35;;;;;;;2.63;1.53;;;;;;;;;;5092182;28;20243;-67
2021/12/09 13:54:05;;;;;;;1.37;1.27;;;;;;;;;;5085577;28;20533;-67
2021/12/09 13:54:57;;;;;;;4.77;1.20;;;;;;;;;;5089640;28;20265;-67
2021/12/09 13:57:38;;;;;;;3.67;1.30;;;;;;;;;;5091500;28;20947;-67
2021/12/09 14:00:08;;;;;;;1.67;1.30;;;;;;;;;;5089410;28;20194;-68
2021/12/09 14:02:36;;;;;;;1.73;1.23;;;;;;;;;;5081506;28;20202;-68
2021/12/09 14:05:06;;;;;;;5.87;2.33;;;;;;;;;;5087498;28;21855;-68
2021/12/09 14:07:42;;;;;;;4.60;1.40;;;;;;;;;;5097817;28;20532;-68
2021/12/09 14:10:16;;;;;;;1.60;1.40;;;;;;;;;;5098931;28;20286;-69
2021/12/09 14:12:55;;;;;;;3.23;1.63;;;;;;;;;;5098498;28;20459;-68
2021/12/09 14:15:34;;;;;;;4.90;1.57;;;;;;;;;;5099979;28;20243;-68
2021/12/09 14:18:06;;;;;;;4.73;1.60;;;;;;;;;;5098971;28;20217;-67
2021/12/09 14:20:34;;;;;;;4.53;1.30;;;;;;;;;;5093206;28;20202;-67
2021/12/09 14:23:03;;;;;;;2.77;1.03;;;;;;;;;;5093386;28;20202;-68
2021/12/09 14:25:33;;;;;;;2.90;1.33;;;;;;;;;;5079343;28;20293;-68
2021/12/09 14:28:05;;;;;;;4.70;1.00;;;;;;;;;;5086190;28;20221;-68
2021/12/09 14:30:33;;;;;;;2.43;1.20;;;;;;;;;;5091114;28;20218;-67
2021/12/09 14:33:02;;;;;;;3.77;1.90;;;;;;;;;;5092245;28;20198;-68
2021/12/09 14:35:32;;;;;;;2.50;1.67;;;;;;;;;;5089192;28;20219;-68
2021/12/09 14:38:00;;;;;;;1.87;1.13;;;;;;;;;;5087918;28;20225;-66
2021/12/09 14:40:33;;;;;;;5.23;1.67;;;;;;;;;;5089574;28;20786;-67
2021/12/09 14:43:04;;;;;;;1.67;1.30;;;;;;;;;;5088206;28;20813;-66
2021/12/09 14:45:33;;;;;;;2.47;1.40;;;;;;;;;;5088090;28;20538;-67
2021/12/09 14:48:02;;;;;;;1.97;1.53;;;;;;;;;;5095313;28;20692;-67
2021/12/09 14:50:36;;;;;;;1.50;1.40;;;;;;;;;;5084376;28;20582;-67
2021/12/09 14:53:28;;;;;;;2.97;1.80;;;;;;;;;;5077645;28;20210;-67
2021/12/09 14:55:56;;;;;;;4.83;1.90;;;;;;;;;;5076915;28;20947;-68
2021/12/09 14:58:26;;;;;;;2.33;2.13;;;;;;;;;;5078704;28;20278;-67
2021/12/09 15:00:59;;;;;;;2.60;1.37;;;;;;;;;;5089447;28;20214;-67
2021/12/09 15:03:35;;;;;;;1.93;1.60;;;;;;;;;;5082980;28;20459;-67
2021/12/09 15:06:27;;;;;;;2.67;1.43;;;;;;;;;;5098655;28;20841;-67
2021/12/09 15:09:00;;;;;;;5.43;2.80;;;;;;;;;;5096367;28;20470;-67
2021/12/09 15:11:28;;;;;;;4.00;2.33;;;;;;;;;;5087934;28;20501;-67
2021/12/09 15:13:57;;;;;;;3.20;1.67;;;;;;;;;;5088985;28;20202;-65
2021/12/09 15:16:26;;;;;;;4.17;1.87;;;;;;;;;;5081180;28;20444;-66
2021/12/09 15:18:54;;;;;;;2.97;1.60;;;;;;;;;;5090105;28;20458;-66
2021/12/09 15:21:23;;;;;;;2.33;1.83;;;;;;;;;;5091720;28;20480;-66
2021/12/09 15:23:55;;;;;;;5.77;1.80;;;;;;;;;;5088814;28;20443;-68
2021/12/09 15:26:24;;;;;;;6.07;2.97;;;;;;;;;;5090726;28;20860;-67
2021/12/09 15:29:04;;;;;;;5.17;1.90;;;;;;;;;;5088615;28;20472;-68
2021/12/09 15:31:33;;;;;;;2.13;1.53;;;;;;;;;;5088030;28;21004;-68
2021/12/09 15:34:06;;;;;;;4.07;1.90;;;;;;;;;;5089133;28;20467;-68